KSTJ/STJ METAR and TAF weather

Enter ICAO airport designator
Station Type Date Time Source
KSTJ METAR 2021/01/17 18:53 UTC NOAA

KSTJ 171853Z 32015G25KT 10SM BKN070 04/M03 A2989 RMK AO2 SLP127 T00441028


Station Type Date Time Source
KSTJ Decoded METAR 2021/01/17 18:53 UTC NOAA

ROSECRANS MEMORIAL AIRPORT, MO, United States (KSTJ) 39-46N 94-55W 247M
Jan 17, 2021 - 01:53 PM EST / 2021.01.17 1853 UTC
Wind: from the NW (320 degrees) at 17 MPH (15 KT) gusting to 29 MPH (25 KT):0
Visibility: 10 mile(s):0
Sky conditions: mostly cloudy
Temperature: 39.9 F (4.4 C)
Dew Point: 27.0 F (-2.8 C)
Relative Humidity: 59%
Pressure (altimeter): 29.89 in. Hg (1012 hPa)
ob: KSTJ 171853Z 32015G25KT 10SM BKN070 04/M03 A2989 RMK AO2 SLP127 T00441028
cycle: 19

Station Type Date Time Source
KSTJ TAF 2021/01/17 18:36 UTC NOAA

TAF KSTJ 171734Z 1718/1818 31013KT P6SM BKN060
FM172300 32009KT P6SM BKN090
FM181200 00000KT P6SM BKN070

Example: see airport list